Terminal Aerodrome Forecast
Issued by NWS Charleston, WV

Current Version | Previous Version | Graphics & Text | Print | Product List | Glossary On
Versions: 1 2 3 4 5 6 7 8 9 10 11 12 13 14 15 16 17 18 19 20 21 22 23 24 25 26 27
253
FTUS41 KRLX 270538
TAFPKB
TAF
KPKB 270538Z 2706/2806 20005KT P6SM VCSH SCT020 OVC050
     FM270900 22005KT 6SM BR BKN012
     FM271400 25004KT P6SM BKN025
     FM271800 24006KT P6SM BKN040
     FM280400 17003KT P6SM SHRA VCTS BKN040CB=

USA.gov is the U.S. government's official web portal to all federal, state and local government web resources and services.